Time;durP1;ratioP1;P1;durP2;ratioP2;P2;SDS_P1;SDS_P2;PMS_P1;PMS_P2;Temp;Humidity;BMP_temperature;BMP_pressure;BME280_temperature;BME280_humidity;BME280_pressure;Samples;Min_cycle;Max_cycle;Signal;HPM_P1;HPM_P2
2023/06/29 00:01:00;;;;;;;6.82;3.35;;;;;;;17.00;59.89;98321.34;5055231;28;20021;-70
2023/06/29 00:03:25;;;;;;;4.90;2.80;;;;;;;17.06;59.93;98321.03;5037060;28;20039;-70
2023/06/29 00:05:51;;;;;;;4.45;2.97;;;;;;;17.16;59.32;98320.13;5071523;28;20027;-71
2023/06/29 00:08:17;;;;;;;5.38;3.15;;;;;;;16.95;59.64;98318.66;5057182;28;20036;-71
2023/06/29 00:10:43;;;;;;;4.80;2.80;;;;;;;16.97;59.29;98321.91;5069385;28;20073;-71
2023/06/29 00:13:08;;;;;;;3.92;2.83;;;;;;;16.86;59.86;98314.91;5053478;28;20037;-72
2023/06/29 00:15:33;;;;;;;5.95;3.10;;;;;;;16.78;60.23;98312.81;5071109;28;20157;-72
2023/06/29 00:17:59;;;;;;;4.82;2.75;;;;;;;16.63;60.68;98327.28;5062155;28;20040;-73
2023/06/29 00:20:28;;;;;;;5.75;2.58;;;;;;;16.84;60.40;98314.38;5071966;28;20035;-72
2023/06/29 00:22:54;;;;;;;4.50;3.10;;;;;;;16.96;59.83;98320.28;5057784;28;20044;-73
2023/06/29 00:25:19;;;;;;;3.85;2.90;;;;;;;16.87;60.10;98322.81;5054728;28;20025;-71
2023/06/29 00:27:44;;;;;;;4.82;2.88;;;;;;;16.83;60.15;98315.47;5036907;28;20071;-71
2023/06/29 00:30:10;;;;;;;3.85;2.80;;;;;;;16.82;60.64;98319.28;5071491;28;20103;-73
2023/06/29 00:32:35;;;;;;;5.68;2.72;;;;;;;16.95;60.09;98313.22;5062141;28;20430;-72
2023/06/29 00:35:02;;;;;;;6.13;2.78;;;;;;;17.11;59.51;98312.00;5071211;28;20047;-72
2023/06/29 00:37:31;;;;;;;4.75;2.65;;;;;;;17.16;59.61;98309.25;5073356;28;20025;-71
2023/06/29 00:39:56;;;;;;;3.17;2.63;;;;;;;16.88;59.98;98310.00;5056408;28;20031;-71
2023/06/29 00:42:24;;;;;;;3.60;2.58;;;;;;;16.55;60.65;98304.22;5041520;28;20036;-71
2023/06/29 00:44:50;;;;;;;5.47;3.17;;;;;;;16.74;60.08;98315.25;5056105;28;20036;-71
2023/06/29 00:47:15;;;;;;;6.90;2.70;;;;;;;16.30;61.96;98317.06;5074227;28;20040;-71
2023/06/29 00:49:41;;;;;;;3.80;2.95;;;;;;;16.28;61.85;98314.66;5062725;28;20142;-72
2023/06/29 00:52:07;;;;;;;4.75;3.30;;;;;;;16.51;61.74;98305.06;5040026;28;20043;-72
2023/06/29 00:54:32;;;;;;;5.32;3.17;;;;;;;16.25;62.19;98304.31;5063523;28;20020;-73
2023/06/29 00:56:58;;;;;;;2.88;2.53;;;;;;;15.90;62.90;98305.25;5062038;28;20037;-72
2023/06/29 00:59:25;;;;;;;6.57;3.22;;;;;;;15.09;65.85;98311.81;5054109;28;20032;-73
2023/06/29 01:01:51;;;;;;;4.65;2.55;;;;;;;14.49;68.26;98317.97;5019799;28;20491;-71
2023/06/29 01:04:24;;;;;;;7.28;3.20;;;;;;;14.77;68.04;98311.25;5070429;28;20025;-71
2023/06/29 01:07:18;;;;;;;4.50;2.90;;;;;;;15.66;64.68;98311.56;5067580;28;20036;-71
2023/06/29 01:09:44;;;;;;;5.15;2.85;;;;;;;15.69;64.36;98305.56;5057350;28;20462;-71
2023/06/29 01:12:12;;;;;;;4.65;2.90;;;;;;;15.57;64.52;98303.16;5066024;28;20024;-71
2023/06/29 01:14:38;;;;;;;6.30;2.75;;;;;;;15.87;63.81;98307.69;5035924;28;20037;-71
2023/06/29 01:17:04;;;;;;;6.28;2.45;;;;;;;15.87;63.48;98300.38;5053140;28;20475;-71
2023/06/29 01:19:31;;;;;;;4.25;2.88;;;;;;;15.96;63.12;98303.34;5074162;28;20039;-71
2023/06/29 01:22:10;;;;;;;4.60;2.90;;;;;;;16.17;63.11;98296.75;5056014;28;20512;-71
2023/06/29 01:24:39;;;;;;;3.03;2.65;;;;;;;16.00;62.85;98301.69;5055566;28;20033;-71
2023/06/29 01:27:07;;;;;;;3.53;2.78;;;;;;;15.81;63.76;98306.91;5054013;28;20028;-73
2023/06/29 01:29:32;;;;;;;5.63;2.80;;;;;;;15.61;64.18;98308.84;5071925;28;20037;-73
2023/06/29 01:32:00;;;;;;;3.65;3.15;;;;;;;15.61;63.59;98303.44;5061693;28;20090;-73
2023/06/29 01:34:30;;;;;;;8.15;3.28;;;;;;;14.92;67.07;98305.84;5035509;28;20043;-72
2023/06/29 01:37:01;;;;;;;3.97;3.33;;;;;;;14.81;67.64;98305.03;5023357;28;20120;-70
2023/06/29 01:39:29;;;;;;;5.53;3.55;;;;;;;15.43;65.76;98302.03;5054497;28;20119;-72
2023/06/29 01:41:55;;;;;;;5.47;3.63;;;;;;;15.46;64.69;98289.88;5063965;28;20039;-73
2023/06/29 01:44:20;;;;;;;5.82;2.92;;;;;;;15.49;64.79;98294.75;5065573;28;20111;-72
2023/06/29 01:46:47;;;;;;;6.80;3.10;;;;;;;15.74;64.99;98289.28;5055457;28;20120;-72
2023/06/29 01:49:12;;;;;;;4.38;3.20;;;;;;;15.82;63.80;98294.16;5056947;28;20063;-71
2023/06/29 01:51:38;;;;;;;3.00;2.70;;;;;;;15.71;64.29;98297.97;5035708;28;20739;-71
2023/06/29 01:54:03;;;;;;;3.35;2.60;;;;;;;15.81;63.95;98303.38;5035215;28;20104;-71
2023/06/29 01:56:31;;;;;;;4.00;3.00;;;;;;;16.06;63.17;98294.34;5035624;28;20124;-72
2023/06/29 01:58:56;;;;;;;5.18;2.70;;;;;;;15.85;63.47;98290.88;5046775;28;20115;-72
2023/06/29 02:01:21;;;;;;;3.50;3.08;;;;;;;15.74;64.19;98287.38;5059980;28;20445;-72
2023/06/29 02:03:47;;;;;;;28.67;23.45;;;;;;;15.82;64.25;98291.44;5053300;28;20028;-72
2023/06/29 02:06:13;;;;;;;4.40;3.30;;;;;;;14.77;66.69;98298.47;5051446;28;20596;-72
2023/06/29 02:08:38;;;;;;;115.43;25.42;;;;;;;15.42;65.11;98288.75;5034998;28;20040;-70
2023/06/29 02:11:06;;;;;;;4.03;3.10;;;;;;;15.62;64.50;98292.28;5060301;28;20035;-71
2023/06/29 02:13:32;;;;;;;3.85;2.88;;;;;;;15.71;64.36;98295.25;5052961;28;20041;-72
2023/06/29 02:15:57;;;;;;;6.85;2.85;;;;;;;15.80;64.64;98301.75;5059579;28;20079;-72
2023/06/29 02:18:23;;;;;;;4.88;2.70;;;;;;;15.80;63.96;98294.41;5057959;28;20037;-74
2023/06/29 02:20:48;;;;;;;3.28;2.65;;;;;;;15.92;63.93;98288.69;5042896;28;20067;-74
2023/06/29 02:23:14;;;;;;;6.50;2.67;;;;;;;15.91;64.55;98295.22;5057601;28;20037;-74
2023/06/29 02:25:39;;;;;;;3.08;2.30;;;;;;;15.99;63.76;98277.50;5047328;28;20028;-75
2023/06/29 02:28:04;;;;;;;4.15;2.53;;;;;;;16.12;63.32;98283.19;5066012;28;20047;-73
2023/06/29 02:30:30;;;;;;;4.53;3.25;;;;;;;16.12;63.28;98283.19;5051641;28;20025;-73
2023/06/29 02:32:56;;;;;;;3.17;2.78;;;;;;;16.43;62.40;98279.22;5051206;28;20064;-74
2023/06/29 02:35:21;;;;;;;5.30;2.65;;;;;;;16.01;63.77;98286.22;5051361;28;20063;-73
2023/06/29 02:37:47;;;;;;;3.40;2.80;;;;;;;15.55;65.75;98280.91;5045510;28;20509;-72
2023/06/29 02:40:12;;;;;;;1.52;1.40;;;;;;;15.09;66.23;98288.22;5051339;28;20067;-71
2023/06/29 02:42:38;;;;;;;14.13;13.43;;;;;;;14.94;67.54;98285.50;5066113;28;20067;-71
2023/06/29 02:45:04;;;;;;;1.83;1.73;;;;;;;15.11;67.87;98277.09;5047617;28;20028;-71
2023/06/29 02:47:29;;;;;;;2.05;2.05;;;;;;;15.27;67.38;98280.63;5048273;28;20063;-72
2023/06/29 02:49:55;;;;;;;1.73;1.73;;;;;;;15.33;66.99;98274.13;5064209;28;20052;-72
2023/06/29 02:52:21;;;;;;;2.00;2.00;;;;;;;14.71;69.05;98283.31;5051245;28;20037;-72
2023/06/29 02:54:47;;;;;;;1.58;1.58;;;;;;;15.47;66.45;98272.50;5054110;28;20024;-73
2023/06/29 02:57:16;;;;;;;1.33;1.33;;;;;;;15.75;66.06;98280.06;5054197;28;20107;-73
2023/06/29 02:59:42;;;;;;;1.05;1.05;;;;;;;15.72;65.70;98272.44;5058167;28;20611;-73
2023/06/29 03:02:07;;;;;;;1.00;1.00;;;;;;;15.97;64.22;98268.84;5058096;28;20037;-74
2023/06/29 03:04:33;;;;;;;0.80;0.80;;;;;;;15.78;63.05;98269.44;5037839;28;20466;-73
2023/06/29 03:06:59;;;;;;;0.65;0.65;;;;;;;15.79;64.41;98256.69;5064832;28;20060;-73
2023/06/29 03:09:24;;;;;;;1.70;1.60;;;;;;;15.56;65.49;98262.72;5051015;28;20056;-73
2023/06/29 03:11:50;;;;;;;5.70;5.35;;;;;;;15.69;64.97;98267.56;5064446;28;20461;-73
2023/06/29 03:14:15;;;;;;;0.65;0.65;;;;;;;15.43;65.40;98258.63;5071609;28;20119;-73
2023/06/29 03:16:41;;;;;;;0.40;0.40;;;;;;;15.43;65.72;98258.63;5069768;28;20036;-73
2023/06/29 03:19:07;;;;;;;2.03;1.92;;;;;;;15.24;66.44;98261.09;5038018;28;20024;-73
2023/06/29 03:21:32;;;;;;;2.40;1.67;;;;;;;15.14;66.39;98254.88;5043819;28;20457;-72
2023/06/29 03:23:57;;;;;;;1.10;1.10;;;;;;;15.37;65.64;98258.91;5051718;28;20043;-73
2023/06/29 03:26:23;;;;;;;0.68;0.68;;;;;;;15.62;65.04;98256.16;5033961;28;20040;-72
2023/06/29 03:28:48;;;;;;;0.70;0.70;;;;;;;15.64;64.39;98245.84;5033807;28;20112;-72
2023/06/29 03:31:14;;;;;;;0.60;0.60;;;;;;;15.73;64.06;98255.06;5047492;28;20067;-73
2023/06/29 03:33:39;;;;;;;0.50;0.50;;;;;;;15.84;63.48;98257.50;5058090;28;20048;-73
2023/06/29 03:36:05;;;;;;;1.25;1.25;;;;;;;15.88;63.04;98255.03;5056742;28;20467;-74
2023/06/29 03:38:30;;;;;;;3.67;3.53;;;;;;;15.81;63.72;98254.50;5070166;28;20020;-72
2023/06/29 03:40:56;;;;;;;3.22;3.03;;;;;;;15.43;65.39;98257.81;5057261;28;20098;-72
2023/06/29 03:43:21;;;;;;;2.25;2.15;;;;;;;15.43;64.57;98246.94;5050268;28;20033;-73
2023/06/29 03:45:46;;;;;;;0.50;0.50;;;;;;;15.44;65.69;98254.88;5043227;28;20483;-73
2023/06/29 03:48:12;;;;;;;0.60;0.60;;;;;;;15.22;65.78;98246.97;5050333;28;20029;-73
2023/06/29 03:50:37;;;;;;;1.10;1.10;;;;;;;15.04;67.14;98261.09;5033597;28;20665;-73
2023/06/29 03:53:02;;;;;;;1.25;1.25;;;;;;;14.99;67.38;98249.44;5050989;28;20021;-73
2023/06/29 03:55:28;;;;;;;4.38;4.07;;;;;;;14.76;68.04;98248.06;5033288;28;20049;-74
2023/06/29 03:57:54;;;;;;;1.00;1.00;;;;;;;14.79;68.28;98252.97;5051269;28;20036;-73
2023/06/29 04:00:20;;;;;;;1.77;1.75;;;;;;;14.75;68.20;98243.72;5051296;28;20033;-73
2023/06/29 04:02:45;;;;;;;0.50;0.50;;;;;;;15.17;67.67;98249.69;5033125;28;20033;-73
2023/06/29 04:05:10;;;;;;;0.43;0.43;;;;;;;14.99;67.80;98246.72;5049892;28;20037;-73
2023/06/29 04:07:36;;;;;;;4.75;4.53;;;;;;;14.90;68.38;98248.34;5050014;28;20198;-73
2023/06/29 04:10:02;;;;;;;2.60;2.50;;;;;;;14.68;68.97;98245.88;5025583;28;20048;-73
2023/06/29 04:12:27;;;;;;;1.40;1.40;;;;;;;14.45;69.64;98251.81;5050981;28;20040;-73
2023/06/29 04:14:53;;;;;;;1.00;1.00;;;;;;;14.78;68.70;98256.75;5049460;28;20407;-73
2023/06/29 04:17:18;;;;;;;1.00;1.00;;;;;;;14.95;67.71;98256.50;5063265;28;20147;-73
2023/06/29 04:19:43;;;;;;;1.00;1.00;;;;;;;15.07;67.74;98260.56;5063585;28;20427;-74
2023/06/29 04:22:09;;;;;;;0.80;0.80;;;;;;;14.92;67.78;98257.84;5067301;28;20027;-73
2023/06/29 04:24:34;;;;;;;0.80;0.80;;;;;;;14.86;67.88;98258.94;5040633;28;20076;-74
2023/06/29 04:27:00;;;;;;;0.80;0.80;;;;;;;14.95;68.47;98251.88;5082052;28;20112;-74
2023/06/29 04:29:25;;;;;;;0.88;0.88;;;;;;;15.02;68.10;98236.16;5073069;28;20036;-74
2023/06/29 04:31:52;;;;;;;0.90;0.90;;;;;;;14.92;68.32;98252.41;5054678;28;20033;-73
2023/06/29 04:34:17;;;;;;;0.60;0.60;;;;;;;15.10;67.59;98249.16;5048686;28;20036;-73
2023/06/29 04:36:45;;;;;;;0.70;0.70;;;;;;;15.32;67.30;98256.19;5054720;28;20031;-73
2023/06/29 04:39:14;;;;;;;0.70;0.70;;;;;;;15.78;66.79;98245.00;5054655;28;20123;-73
2023/06/29 04:41:41;;;;;;;1.30;1.30;;;;;;;15.88;66.19;98249.59;5053423;28;20064;-73
2023/06/29 04:44:10;;;;;;;1.20;1.20;;;;;;;16.04;66.64;98247.63;5054227;28;20071;-73
2023/06/29 04:46:39;;;;;;;1.40;1.40;;;;;;;16.27;65.72;98245.06;5036905;28;20049;-74
2023/06/29 04:49:06;;;;;;;1.20;1.20;;;;;;;16.62;64.28;98243.28;5030180;28;20067;-74
2023/06/29 04:51:38;;;;;;;0.90;0.90;;;;;;;16.84;63.32;98240.94;5039728;28;20029;-74
2023/06/29 04:54:06;;;;;;;1.05;1.05;;;;;;;16.59;64.49;98245.44;5066398;28;20036;-74
2023/06/29 04:56:32;;;;;;;1.00;1.00;;;;;;;16.24;66.43;98242.91;5053028;28;20025;-74
2023/06/29 04:58:58;;;;;;;0.50;0.50;;;;;;;16.26;65.54;98243.47;5036443;28;20037;-74
2023/06/29 05:01:23;;;;;;;0.50;0.50;;;;;;;16.44;65.36;98242.81;5036236;28;20437;-74
2023/06/29 05:03:48;;;;;;;0.60;0.60;;;;;;;16.02;67.30;98256.06;5035974;28;20036;-74
2023/06/29 05:06:14;;;;;;;0.50;0.50;;;;;;;16.33;65.93;98248.56;5060204;28;20111;-74
2023/06/29 05:08:39;;;;;;;0.60;0.60;;;;;;;16.57;64.92;98244.91;5072322;28;20032;-74
2023/06/29 05:11:05;;;;;;;0.50;0.50;;;;;;;16.56;64.91;98246.03;5052833;28;20475;-74
2023/06/29 05:13:32;;;;;;;0.30;0.30;;;;;;;16.81;62.14;98246.94;5047820;28;20037;-75
2023/06/29 05:15:58;;;;;;;0.30;0.30;;;;;;;16.99;62.42;98244.34;5044232;28;20047;-75
2023/06/29 05:18:24;;;;;;;0.30;0.30;;;;;;;17.13;62.54;98253.47;5071630;28;20040;-75
2023/06/29 05:20:50;;;;;;;0.85;0.85;;;;;;;17.17;61.33;98248.28;5052732;28;20025;-75
2023/06/29 05:23:15;;;;;;;0.20;0.20;;;;;;;17.73;58.25;98243.16;5054514;28;20602;-75
2023/06/29 05:25:41;;;;;;;0.10;0.10;;;;;;;17.24;58.32;98240.63;5060284;28;20020;-73
2023/06/29 05:28:07;;;;;;;0.10;0.10;;;;;;;17.61;57.67;98240.81;5042314;28;20549;-74
2023/06/29 05:30:34;;;;;;;0.10;0.10;;;;;;;17.89;59.21;98244.59;5064707;28;20025;-74
2023/06/29 05:32:59;;;;;;;0.20;0.20;;;;;;;17.60;60.75;98244.63;5066357;28;20474;-74
2023/06/29 05:35:24;;;;;;;0.10;0.10;;;;;;;17.40;59.80;98250.25;5052364;28;20021;-75
2023/06/29 05:37:50;;;;;;;0.10;0.10;;;;;;;17.54;59.60;98245.78;5066635;28;20045;-72
2023/06/29 05:40:15;;;;;;;0.20;0.20;;;;;;;18.14;57.75;98243.47;5064129;28;20032;-71
2023/06/29 05:42:41;;;;;;;0.10;0.10;;;;;;;17.98;59.23;98239.31;5067222;28;20053;-71
2023/06/29 05:45:06;;;;;;;3.67;3.45;;;;;;;18.34;58.56;98237.75;5071934;28;20513;-71
2023/06/29 05:47:32;;;;;;;0.10;0.10;;;;;;;18.57;57.53;98242.38;5072018;28;20036;-71
2023/06/29 05:49:57;;;;;;;0.10;0.10;;;;;;;18.65;56.78;98236.25;5052047;28;20395;-71
2023/06/29 05:52:22;;;;;;;0.10;0.10;;;;;;;18.42;58.22;98231.63;5058489;28;20036;-70
2023/06/29 05:54:48;;;;;;;0.00;0.00;;;;;;;18.52;58.46;98235.09;5054888;28;20032;-70
2023/06/29 05:57:13;;;;;;;0.00;0.00;;;;;;;18.41;58.87;98232.75;5057859;28;20051;-70
2023/06/29 05:59:38;;;;;;;0.10;0.10;;;;;;;18.82;58.11;98233.81;5052957;28;20537;-70
2023/06/29 06:02:04;;;;;;;0.00;0.00;;;;;;;18.36;57.23;98235.56;5051784;28;20044;-70
2023/06/29 06:04:29;;;;;;;0.13;0.13;;;;;;;18.72;56.73;98227.72;5052726;28;20055;-71
2023/06/29 06:06:55;;;;;;;0.00;0.00;;;;;;;19.14;55.86;98236.56;5051960;28;20452;-71
2023/06/29 06:09:20;;;;;;;0.10;0.10;;;;;;;19.39;55.13;98231.81;5052831;28;20029;-70
2023/06/29 06:11:45;;;;;;;0.05;0.05;;;;;;;19.83;52.50;98232.06;5052931;28;20037;-71
2023/06/29 06:14:11;;;;;;;1.45;1.42;;;;;;;19.44;54.71;98234.47;5034508;28;20514;-74
2023/06/29 06:16:36;;;;;;;0.00;0.00;;;;;;;19.36;55.96;98232.41;5048205;28;20032;-73
2023/06/29 06:19:01;;;;;;;0.00;0.00;;;;;;;19.86;54.80;98232.25;5071489;28;20590;-73
2023/06/29 06:21:27;;;;;;;0.10;0.10;;;;;;;20.40;53.07;98228.69;5067664;28;20044;-73
2023/06/29 06:23:53;;;;;;;0.10;0.10;;;;;;;19.64;54.55;98223.97;5052332;28;20851;-73
2023/06/29 06:26:18;;;;;;;0.20;0.20;;;;;;;20.07;53.88;98227.19;5051310;28;20037;-72
2023/06/29 06:28:44;;;;;;;0.20;0.20;;;;;;;20.65;52.71;98228.13;5058105;28;20429;-73
2023/06/29 06:31:09;;;;;;;0.20;0.20;;;;;;;20.79;51.86;98221.81;5057650;28;20037;-73
2023/06/29 06:33:34;;;;;;;0.30;0.30;;;;;;;20.93;51.97;98222.56;5051036;28;20025;-73
2023/06/29 06:36:00;;;;;;;0.20;0.20;;;;;;;21.25;50.59;98214.94;5051057;28;20116;-73
2023/06/29 06:38:25;;;;;;;0.22;0.22;;;;;;;21.33;50.57;98216.13;5051130;28;20021;-73
2023/06/29 06:40:51;;;;;;;0.10;0.10;;;;;;;21.06;51.65;98221.72;5064570;28;20163;-72
2023/06/29 06:43:17;;;;;;;0.20;0.20;;;;;;;20.62;52.41;98223.28;5050783;28;20023;-73
2023/06/29 06:45:43;;;;;;;0.10;0.10;;;;;;;20.62;52.62;98223.28;5050884;28;20024;-72
2023/06/29 06:48:09;;;;;;;0.20;0.20;;;;;;;21.01;51.20;98224.56;5052111;28;20410;-73
2023/06/29 06:50:34;;;;;;;0.10;0.10;;;;;;;20.71;52.23;98225.28;5052028;28;20120;-73
2023/06/29 06:53:00;;;;;;;0.10;0.10;;;;;;;20.97;49.97;98215.34;5020521;28;20459;-73
2023/06/29 06:55:26;;;;;;;0.10;0.10;;;;;;;21.36;48.64;98210.00;5063980;28;20480;-73
2023/06/29 06:57:51;;;;;;;0.20;0.20;;;;;;;21.56;48.56;98209.47;5050708;28;20106;-73
2023/06/29 07:00:17;;;;;;;0.10;0.10;;;;;;;21.50;48.65;98209.91;5063634;28;20478;-73
2023/06/29 07:02:42;;;;;;;0.10;0.10;;;;;;;21.55;47.87;98207.03;5050780;28;20463;-73
2023/06/29 07:05:08;;;;;;;189.20;71.80;;;;;;;21.29;47.25;98215.13;5050735;28;20047;-73
2023/06/29 07:07:34;;;;;;;153.55;141.68;;;;;;;21.43;47.14;98199.41;5051727;28;20033;-72
2023/06/29 07:09:59;;;;;;;4.60;2.90;;;;;;;22.01;45.79;98199.19;5050662;28;20057;-73
2023/06/29 07:12:25;;;;;;;3.17;2.40;;;;;;;21.67;46.62;98210.81;5050435;28;20431;-73
2023/06/29 07:14:50;;;;;;;3.78;2.60;;;;;;;21.87;45.78;98204.78;5051451;28;20056;-73
2023/06/29 07:17:16;;;;;;;0.10;0.10;;;;;;;22.38;45.12;98204.09;5069256;28;20151;-73
2023/06/29 07:19:41;;;;;;;97.40;91.53;;;;;;;22.44;45.81;98205.59;5070502;28;20044;-73
2023/06/29 07:22:06;;;;;;;4.88;2.60;;;;;;;22.69;45.08;98198.50;5071567;28;20166;-73
2023/06/29 07:24:32;;;;;;;43.45;40.58;;;;;;;22.52;44.48;98188.28;5070066;28;20036;-73
2023/06/29 07:26:57;;;;;;;453.17;360.85;;;;;;;23.22;44.07;98193.44;5035207;28;20025;-73
2023/06/29 07:29:23;;;;;;;412.08;260.70;;;;;;;23.57;42.84;98190.66;5062135;28;20043;-73
2023/06/29 07:31:48;;;;;;;96.80;88.68;;;;;;;22.96;41.78;98191.91;5070332;28;20036;-72
2023/06/29 07:34:14;;;;;;;47.78;22.75;;;;;;;22.78;42.48;98185.59;5070351;28;20128;-74
2023/06/29 07:36:39;;;;;;;147.13;47.42;;;;;;;23.55;41.13;98187.44;5034764;28;20142;-73
2023/06/29 07:39:05;;;;;;;18.83;3.33;;;;;;;23.09;43.37;98188.16;5054358;28;20033;-73
2023/06/29 07:41:31;;;;;;;75.85;18.15;;;;;;;23.11;43.49;98189.44;5071867;28;20031;-73
2023/06/29 07:43:57;;;;;;;40.63;9.80;;;;;;;22.95;42.11;98191.09;5041246;28;20033;-73
2023/06/29 07:46:23;;;;;;;2.38;2.00;;;;;;;22.91;43.27;98184.63;5067743;28;20671;-73
2023/06/29 07:48:49;;;;;;;3.13;2.47;;;;;;;23.36;42.57;98185.84;5040002;28;20409;-72
2023/06/29 07:51:15;;;;;;;14.35;13.15;;;;;;;23.32;40.71;98179.38;5068401;28;20031;-73
2023/06/29 07:53:41;;;;;;;1.48;1.38;;;;;;;23.58;41.72;98176.56;5068383;28;20057;-72
2023/06/29 07:56:07;;;;;;;2.97;2.20;;;;;;;23.54;42.64;98174.81;5068752;28;20029;-73
2023/06/29 07:58:32;;;;;;;107.95;22.02;;;;;;;23.62;41.91;98176.75;5057818;28;20041;-73
2023/06/29 08:00:57;;;;;;;34.97;13.13;;;;;;;23.91;41.19;98179.50;5068277;28;20459;-73
2023/06/29 08:03:23;;;;;;;58.88;54.00;;;;;;;23.75;40.44;98181.19;5059320;28;20043;-73
2023/06/29 08:05:50;;;;;;;30.92;27.42;;;;;;;23.56;40.81;98176.09;5072950;28;20108;-73
2023/06/29 08:08:15;;;;;;;107.03;45.88;;;;;;;23.76;40.83;98177.28;5074956;28;20041;-73
2023/06/29 08:10:41;;;;;;;2.85;2.25;;;;;;;24.24;39.16;98166.72;5073875;28;20037;-73
2023/06/29 08:13:06;;;;;;;6.50;2.42;;;;;;;24.10;39.71;98171.66;5053532;28;20546;-73
2023/06/29 08:15:32;;;;;;;4.82;2.08;;;;;;;23.90;39.69;98177.88;5071377;28;20051;-73
2023/06/29 08:17:57;;;;;;;3.03;2.28;;;;;;;23.57;39.04;98161.19;5062693;28;20047;-73
2023/06/29 08:20:22;;;;;;;2.00;1.65;;;;;;;24.26;38.48;98153.44;5072703;28;20036;-73
2023/06/29 08:22:48;;;;;;;3.78;2.15;;;;;;;24.76;39.48;98166.34;5059895;28;20120;-73
2023/06/29 08:25:14;;;;;;;3.65;1.90;;;;;;;24.82;37.74;98153.97;5071241;28;20024;-73
2023/06/29 08:27:41;;;;;;;5.00;2.08;;;;;;;24.85;39.42;98154.13;5073707;28;20090;-73
2023/06/29 08:30:07;;;;;;;4.07;2.03;;;;;;;24.78;37.35;98164.06;5057690;28;20072;-73
2023/06/29 08:32:32;;;;;;;4.55;2.03;;;;;;;24.47;37.87;98159.75;5054913;28;20033;-73
2023/06/29 08:34:58;;;;;;;2.50;2.13;;;;;;;24.55;38.11;98164.38;5054641;28;20066;-75
2023/06/29 08:37:23;;;;;;;2.40;1.83;;;;;;;25.15;35.74;98157.56;5054609;28;20058;-72
2023/06/29 08:39:49;;;;;;;2.83;1.70;;;;;;;25.10;35.76;98160.53;5053624;28;20032;-73
2023/06/29 08:42:14;;;;;;;3.13;1.80;;;;;;;25.54;33.30;98143.19;5054674;28;20419;-73
2023/06/29 08:44:40;;;;;;;2.92;2.17;;;;;;;25.58;32.88;98138.59;5053101;28;20033;-72
2023/06/29 08:47:05;;;;;;;4.05;2.25;;;;;;;25.75;33.33;98154.13;5053398;28;20112;-72
2023/06/29 08:49:34;;;;;;;2.65;1.50;;;;;;;26.02;32.45;98131.38;5053318;28;20039;-73
2023/06/29 08:52:03;;;;;;;2.05;1.38;;;;;;;25.90;32.78;98137.69;5054609;28;20041;-73
2023/06/29 08:54:31;;;;;;;1.83;1.17;;;;;;;25.88;33.24;98137.22;5054175;28;20021;-73
2023/06/29 08:56:58;;;;;;;1.50;1.27;;;;;;;25.76;33.50;98133.66;5063498;28;20059;-73
2023/06/29 08:59:24;;;;;;;1.45;1.08;;;;;;;26.15;33.00;98126.66;5056035;28;20075;-73
2023/06/29 09:01:49;;;;;;;1.80;1.15;;;;;;;26.38;32.71;98128.56;5053030;28;20041;-73
2023/06/29 09:04:14;;;;;;;7.15;1.02;;;;;;;25.69;33.20;98131.50;5036023;28;20092;-73
2023/06/29 09:06:43;;;;;;;2.85;1.50;;;;;;;25.30;34.34;98132.06;5051558;28;20029;-73
2023/06/29 09:09:08;;;;;;;1.30;1.20;;;;;;;25.36;33.29;98125.22;5064834;28;20463;-73
2023/06/29 09:11:35;;;;;;;6.22;1.75;;;;;;;25.11;33.43;98129.06;5052779;28;20039;-73
2023/06/29 09:14:07;;;;;;;3.03;1.27;;;;;;;25.72;34.02;98128.03;5052266;28;20035;-73
2023/06/29 09:16:34;;;;;;;2.60;1.25;;;;;;;25.49;33.60;98121.34;5048092;28;20144;-74
2023/06/29 09:19:00;;;;;;;2.10;1.27;;;;;;;25.08;33.87;98132.50;5060453;28;20017;-73
2023/06/29 09:21:28;;;;;;;3.65;1.42;;;;;;;26.34;33.48;98116.59;5068943;28;20112;-73
2023/06/29 09:23:57;;;;;;;1.67;1.20;;;;;;;26.51;35.45;98118.28;5058934;28;20037;-73
2023/06/29 09:26:27;;;;;;;1.67;1.23;;;;;;;25.83;34.42;98122.88;5072481;28;20028;-73
2023/06/29 09:28:57;;;;;;;5.05;1.60;;;;;;;25.75;34.85;98116.31;5048196;28;20044;-73
2023/06/29 09:31:25;;;;;;;1.63;1.48;;;;;;;25.56;34.33;98116.06;5037327;28;20037;-73
2023/06/29 09:33:51;;;;;;;2.42;1.33;;;;;;;25.55;34.26;98111.72;5072081;28;20021;-73
2023/06/29 09:36:16;;;;;;;4.20;1.48;;;;;;;26.92;34.32;98104.09;5073360;28;20497;-73
2023/06/29 09:38:46;;;;;;;6.22;1.38;;;;;;;27.49;31.30;98100.09;5073471;28;20056;-73
2023/06/29 09:41:11;;;;;;;42.83;34.53;;;;;;;26.72;33.68;98099.56;5073290;28;20039;-73
2023/06/29 09:43:36;;;;;;;44.17;23.38;;;;;;;26.36;34.15;98105.19;5063154;28;20033;-72
2023/06/29 09:46:01;;;;;;;0.98;0.95;;;;;;;26.38;33.28;98111.19;5068766;28;20523;-73
2023/06/29 09:48:27;;;;;;;5.40;1.13;;;;;;;27.64;33.48;98096.50;5069338;28;20047;-73
2023/06/29 09:50:54;;;;;;;40.92;6.45;;;;;;;26.94;32.16;98098.19;5057895;28;20737;-73
2023/06/29 09:53:30;;;;;;;20.48;2.22;;;;;;;26.42;33.33;98109.34;5051819;28;20033;-73
2023/06/29 09:55:58;;;;;;;1.40;1.30;;;;;;;26.35;32.79;98098.09;5051858;28;20499;-73
2023/06/29 09:58:24;;;;;;;0.35;0.35;;;;;;;26.09;32.88;98093.72;5051979;28;20029;-73
2023/06/29 10:00:50;;;;;;;0.60;0.60;;;;;;;26.43;33.16;98086.06;5053036;28;20028;-73
2023/06/29 10:03:15;;;;;;;0.80;0.80;;;;;;;26.68;33.15;98085.63;5051550;28;20467;-73
2023/06/29 10:05:41;;;;;;;0.98;0.98;;;;;;;26.77;33.12;98079.97;5051651;28;20061;-72
2023/06/29 10:08:08;;;;;;;0.60;0.50;;;;;;;27.34;32.47;98072.03;5051769;28;20028;-73
2023/06/29 10:10:34;;;;;;;0.75;0.68;;;;;;;27.61;32.38;98075.09;5051663;28;20044;-73
2023/06/29 10:12:59;;;;;;;5.90;5.60;;;;;;;28.06;31.87;98072.63;5051343;28;20029;-73
2023/06/29 10:15:26;;;;;;;0.90;0.77;;;;;;;28.20;31.69;98080.44;5054850;28;20044;-72
2023/06/29 10:18:00;;;;;;;0.85;0.85;;;;;;;28.67;30.87;98070.81;5062339;28;20047;-73
2023/06/29 10:20:27;;;;;;;1.90;1.50;;;;;;;28.02;31.93;98068.97;5069525;28;20044;-73
2023/06/29 10:22:55;;;;;;;1.60;1.00;;;;;;;28.00;32.02;98065.78;5054382;28;20016;-73
2023/06/29 10:25:21;;;;;;;2.05;1.48;;;;;;;27.83;32.63;98072.47;5052773;28;20062;-73
2023/06/29 10:27:48;;;;;;;1.30;1.20;;;;;;;27.19;32.56;98061.75;5051225;28;20032;-73
2023/06/29 10:30:18;;;;;;;4.90;1.52;;;;;;;27.61;32.65;98061.25;5051484;28;20125;-73
2023/06/29 10:32:47;;;;;;;1.23;1.13;;;;;;;27.57;31.57;98057.59;5052275;28;20047;-73
2023/06/29 10:35:13;;;;;;;0.93;0.93;;;;;;;27.10;32.15;98061.13;5070265;28;20028;-73
2023/06/29 10:37:47;;;;;;;1.52;0.80;;;;;;;26.79;31.88;98066.63;5058669;28;20530;-73
2023/06/29 10:40:14;;;;;;;1.17;0.93;;;;;;;27.46;31.74;98045.47;5034628;28;20037;-73
2023/06/29 10:42:39;;;;;;;101.80;31.77;;;;;;;26.98;31.67;98052.91;5065611;28;20453;-73
2023/06/29 10:45:25;;;;;;;0.80;0.80;;;;;;;27.11;32.01;98062.75;5064904;28;20073;-73
2023/06/29 10:47:53;;;;;;;1.27;1.02;;;;;;;28.06;31.38;98061.53;5065370;28;20287;-75
2023/06/29 10:50:21;;;;;;;1.35;0.93;;;;;;;28.13;32.00;98053.41;5060861;28;20086;-75
2023/06/29 10:52:47;;;;;;;3.85;1.33;;;;;;;29.00;29.83;98059.16;5057275;28;20055;-75
2023/06/29 10:55:17;;;;;;;1.42;1.10;;;;;;;29.24;29.68;98049.72;5054146;28;20060;-75
2023/06/29 10:57:47;;;;;;;0.88;0.88;;;;;;;28.64;29.84;98046.56;5066726;28;20036;-75
2023/06/29 11:00:14;;;;;;;2.05;1.17;;;;;;;29.40;29.04;98039.28;5062213;28;20032;-75
2023/06/29 11:02:44;;;;;;;0.98;0.98;;;;;;;28.80;30.32;98042.94;5056757;28;20107;-75
2023/06/29 11:05:14;;;;;;;4.20;1.60;;;;;;;27.83;31.06;98049.53;5057766;28;20082;-74
2023/06/29 11:07:39;;;;;;;152.13;86.57;;;;;;;27.84;31.13;98051.13;5037581;28;20036;-74
2023/06/29 11:10:05;;;;;;;9.02;8.38;;;;;;;28.71;29.79;98032.84;5057888;28;20097;-74
2023/06/29 11:12:31;;;;;;;6.07;5.68;;;;;;;29.23;28.19;98018.38;5069068;28;20031;-74
2023/06/29 11:14:56;;;;;;;2.35;1.02;;;;;;;28.61;29.27;98029.91;5070531;28;20054;-74
2023/06/29 11:17:24;;;;;;;4.22;2.58;;;;;;;29.25;29.81;98021.59;5050593;28;20372;-74
2023/06/29 11:19:50;;;;;;;33.55;12.05;;;;;;;28.59;29.31;98021.16;5063747;28;20164;-74
2023/06/29 11:22:18;;;;;;;1.23;1.13;;;;;;;28.86;30.44;98019.25;5052965;28;20494;-74
2023/06/29 11:24:44;;;;;;;2.50;1.20;;;;;;;28.24;30.20;98018.41;5056697;28;20041;-75
2023/06/29 11:27:10;;;;;;;1.20;1.10;;;;;;;27.74;30.46;98012.94;5052714;28;20039;-75